Buoy 48769

sailwx.info

Track history (hours):
 
Tides and Currents Weather Stations Pressure Air Temp Water Temp Dewpoint Dewpoint Depression Visibility Wind Speed Wind Dir Waves Ship Positions

Drifting buoy 48769

Last reported at 2017-Oct-22 20:00 UTC. Time now 2017-Oct-22 21:14 UTC.
Position N 70°30' W 102°04'.

Barometer 1002.7 mb
Air temperature -3.4 ° C

Date/timePositionNaut miles runAvg speedWind from/ knotsBaromVisibWave heightAir tempDewpointWater temp
2017-Oct-22 20:00N 70°30' W 102°04'0 0.0 1002.7 -3.4
2017-Oct-22 19:00N 70°30' W 102°04'0 0.0 1002.2 -3.4
2017-Oct-22 16:00N 70°30' W 102°04'0 0.0 1000.5 -3.4
2017-Oct-22 14:00N 70°30' W 102°04'0 0.0 999.9 -3.2
2017-Oct-22 07:00N 70°30' W 102°04'0 0.0 1000.7 -3.1
2017-Oct-21 22:00N 70°30' W 102°04'0 0.0 1006.8 -3.5
2017-Oct-21 20:00N 70°30' W 102°04'0 0.0 1007.9 -3.6
2017-Oct-21 18:00N 70°30' W 102°04'0 0.0 1008.4 -3.7
2017-Oct-21 14:00N 70°30' W 102°04'0 0.0 1008.6 -3.9
2017-Oct-21 11:00N 70°30' W 102°04'0 0.0 1008.4 -4.2
2017-Oct-21 08:00N 70°30' W 102°04'0 0.0 1008.3 -4.1
2017-Oct-21 05:00N 70°30' W 102°04'0 0.0 1007.9 -4.1
2017-Oct-21 03:00N 70°30' W 102°04'0 0.0 1007.3 -4.1
2017-Oct-20 22:00N 70°30' W 102°04'0 0.0 1008.1 -4.3
2017-Oct-20 20:00N 70°30' W 102°04'0 0.0 1008.3 -4.4
2017-Oct-20 17:00N 70°30' W 102°04'0 0.0 1008.4 -4.6
2017-Oct-20 15:00N 70°30' W 102°04'0 0.0 1008.5 -4.7
2017-Oct-20 13:00N 70°30' W 102°04'0 0.0 1008.7 -4.8
2017-Oct-20 06:00N 70°30' W 102°04'0 0.0 1009.8 -5.3
2017-Oct-20 04:00N 70°30' W 102°04'0 0.0 1009.6 -5.3
2017-Oct-19 19:00N 70°30' W 102°04'0 0.0 1009.2 -4.5
2017-Oct-19 18:00N 70°30' W 102°04'0 0.0 1009.2 -4.6
2017-Oct-19 16:00N 70°30' W 102°04'0 0.0 1008.8 -4.8
2017-Oct-19 14:00N 70°30' W 102°04'0 0.0 1008.5 -4.8
2017-Oct-19 07:00N 70°30' W 102°04'0 0.0 1007.9 -5.2
2017-Oct-19 02:00N 70°30' W 102°04'0 0.0 1007.5 -5.2
2017-Oct-18 22:00N 70°30' W 102°04'0 0.0 1007.6 -5.2
2017-Oct-18 20:00N 70°30' W 102°04'   1007.0 -5.3
Track history (hours):
 
Tides and Currents Weather Stations Pressure Air Temp Water Temp Dewpoint Dewpoint Depression Visibility Wind Speed Wind Dir Waves Ship Positions

Drifting buoy 48769

Last reported at 2017-Oct-22 20:00 UTC. Time now 2017-Oct-22 21:14 UTC.
Position N 70°30' W 102°04'.

Barometer 1002.7 mb
Air temperature -3.4 ° C

Date/timePositionNaut miles runAvg speedWind from/ knotsBaromVisibWave heightAir tempDewpointWater temp
2017-Oct-22 20:00N 70°30' W 102°04'0 0.0 1002.7 -3.4
2017-Oct-22 19:00N 70°30' W 102°04'0 0.0 1002.2 -3.4
2017-Oct-22 16:00N 70°30' W 102°04'0 0.0 1000.5 -3.4
2017-Oct-22 14:00N 70°30' W 102°04'0 0.0 999.9 -3.2
2017-Oct-22 07:00N 70°30' W 102°04'0 0.0 1000.7 -3.1
2017-Oct-21 22:00N 70°30' W 102°04'0 0.0 1006.8 -3.5
2017-Oct-21 20:00N 70°30' W 102°04'0 0.0 1007.9 -3.6
2017-Oct-21 18:00N 70°30' W 102°04'0 0.0 1008.4 -3.7
2017-Oct-21 14:00N 70°30' W 102°04'0 0.0 1008.6 -3.9
2017-Oct-21 11:00N 70°30' W 102°04'0 0.0 1008.4 -4.2
2017-Oct-21 08:00N 70°30' W 102°04'0 0.0 1008.3 -4.1
2017-Oct-21 05:00N 70°30' W 102°04'0 0.0 1007.9 -4.1
2017-Oct-21 03:00N 70°30' W 102°04'0 0.0 1007.3 -4.1
2017-Oct-20 22:00N 70°30' W 102°04'0 0.0 1008.1 -4.3
2017-Oct-20 20:00N 70°30' W 102°04'0 0.0 1008.3 -4.4
2017-Oct-20 17:00N 70°30' W 102°04'0 0.0 1008.4 -4.6
2017-Oct-20 15:00N 70°30' W 102°04'0 0.0 1008.5 -4.7
2017-Oct-20 13:00N 70°30' W 102°04'0 0.0 1008.7 -4.8
2017-Oct-20 06:00N 70°30' W 102°04'0 0.0 1009.8 -5.3
2017-Oct-20 04:00N 70°30' W 102°04'0 0.0 1009.6 -5.3
2017-Oct-19 19:00N 70°30' W 102°04'0 0.0 1009.2 -4.5
2017-Oct-19 18:00N 70°30' W 102°04'0 0.0 1009.2 -4.6
2017-Oct-19 16:00N 70°30' W 102°04'0 0.0 1008.8 -4.8
2017-Oct-19 14:00N 70°30' W 102°04'0 0.0 1008.5 -4.8
2017-Oct-19 07:00N 70°30' W 102°04'0 0.0 1007.9 -5.2
2017-Oct-19 02:00N 70°30' W 102°04'0 0.0 1007.5 -5.2
2017-Oct-18 22:00N 70°30' W 102°04'0 0.0 1007.6 -5.2
2017-Oct-18 20:00N 70°30' W 102°04'   1007.0 -5.3

Dump ship's entire track history